createdAt,value
2018-12-26T00:00:44.914Z,5.07
2018-12-26T00:03:12.635Z,6.63
2018-12-26T00:05:40.495Z,4.57
2018-12-26T00:08:08.181Z,5.53
2018-12-26T00:10:36.428Z,3.73
2018-12-26T00:13:04.136Z,6.87
2018-12-26T00:15:32.714Z,4.03
2018-12-26T00:18:00.420Z,3.73
2018-12-26T00:20:28.189Z,4.17
2018-12-26T00:22:55.878Z,3.63
2018-12-26T00:25:23.620Z,3.83
2018-12-26T00:27:51.285Z,5.03
2018-12-26T00:30:19.000Z,3.10
2018-12-26T00:32:46.617Z,3.13
2018-12-26T00:35:14.300Z,3.60
2018-12-26T00:37:41.986Z,3.83
2018-12-26T00:40:09.698Z,6.07
2018-12-26T00:42:37.395Z,6.80
2018-12-26T00:45:05.775Z,4.57
2018-12-26T00:47:33.497Z,4.57
2018-12-26T00:50:01.195Z,4.27
2018-12-26T00:52:28.894Z,3.53
2018-12-26T00:54:56.617Z,3.50
2018-12-26T00:57:24.413Z,4.37
2018-12-26T00:59:52.103Z,3.80
2018-12-26T01:02:19.842Z,3.20
2018-12-26T01:04:47.538Z,5.10
2018-12-26T01:07:15.236Z,3.50
2018-12-26T01:09:42.961Z,2.67
2018-12-26T01:12:10.773Z,4.27
2018-12-26T01:14:38.517Z,4.80
2018-12-26T01:17:06.285Z,4.77
2018-12-26T01:19:33.989Z,2.80
2018-12-26T01:22:01.680Z,3.93
2018-12-26T01:24:29.389Z,6.47
2018-12-26T01:26:57.098Z,12.57
2018-12-26T01:29:24.883Z,20.77
2018-12-26T01:31:52.749Z,20.53
2018-12-26T01:34:20.450Z,6.47
2018-12-26T01:36:48.148Z,2.80
2018-12-26T01:39:15.875Z,4.23
2018-12-26T01:41:43.582Z,3.47
2018-12-26T01:44:11.283Z,5.67
2018-12-26T01:46:39.059Z,3.43
2018-12-26T01:49:06.696Z,3.30
2018-12-26T01:51:34.394Z,4.33
2018-12-26T01:54:02.156Z,7.00
2018-12-26T01:56:29.861Z,7.30
2018-12-26T01:58:57.548Z,4.00
2018-12-26T02:01:25.273Z,4.57
2018-12-26T02:03:52.980Z,5.80
2018-12-26T02:06:20.661Z,5.50
2018-12-26T02:08:48.428Z,4.73
2018-12-26T02:11:16.134Z,5.23
2018-12-26T02:13:43.838Z,7.70
2018-12-26T02:16:11.577Z,6.67
2018-12-26T02:18:39.365Z,8.73
2018-12-26T02:21:07.068Z,10.30
2018-12-26T02:23:34.798Z,8.33
2018-12-26T02:26:02.499Z,9.27
2018-12-26T02:28:30.188Z,4.87
2018-12-26T02:30:57.917Z,5.27
2018-12-26T02:33:25.635Z,4.90
2018-12-26T02:35:53.329Z,4.33
2018-12-26T02:38:21.276Z,4.30
2018-12-26T02:40:48.970Z,7.03
2018-12-26T02:43:16.677Z,6.03
2018-12-26T02:45:44.397Z,3.40
2018-12-26T02:48:12.098Z,4.00
2018-12-26T02:50:39.785Z,3.87
2018-12-26T02:53:07.514Z,3.70
2018-12-26T02:55:35.207Z,3.33
2018-12-26T02:58:02.899Z,4.07
2018-12-26T03:00:30.640Z,4.87
2018-12-26T03:02:58.333Z,3.43
2018-12-26T03:05:26.034Z,5.57
2018-12-26T03:07:53.753Z,4.63
2018-12-26T03:10:21.481Z,2.90
2018-12-26T03:12:49.184Z,3.17
2018-12-26T03:15:16.900Z,3.00
2018-12-26T03:17:44.588Z,3.60
2018-12-26T03:20:12.281Z,2.97
2018-12-26T03:22:40.017Z,4.50
2018-12-26T03:25:07.739Z,3.57
2018-12-26T03:27:35.421Z,4.40
2018-12-26T03:30:03.257Z,3.93
2018-12-26T03:32:31.035Z,2.57
2018-12-26T03:34:58.730Z,4.90
2018-12-26T03:37:26.450Z,3.80
2018-12-26T03:39:54.321Z,4.07
2018-12-26T03:42:22.015Z,2.97
2018-12-26T03:44:49.806Z,3.20
2018-12-26T03:47:17.505Z,3.03
2018-12-26T03:49:45.237Z,2.40
2018-12-26T03:52:12.961Z,3.07
2018-12-26T03:54:40.689Z,5.23
2018-12-26T03:57:08.414Z,5.00
2018-12-26T03:59:36.128Z,3.13
2018-12-26T04:02:03.855Z,2.67
2018-12-26T04:04:31.549Z,6.73
2018-12-26T04:06:59.278Z,3.53
2018-12-26T04:09:26.990Z,3.40
2018-12-26T04:11:54.808Z,4.53
2018-12-26T04:14:22.500Z,2.90
2018-12-26T04:16:50.265Z,5.33
2018-12-26T04:19:17.970Z,5.37
2018-12-26T04:21:45.680Z,3.27
2018-12-26T04:24:13.385Z,10.60
2018-12-26T04:26:41.077Z,3.03
2018-12-26T04:29:08.785Z,3.27
2018-12-26T04:31:36.568Z,5.07
2018-12-26T04:34:04.261Z,3.07
2018-12-26T04:36:31.996Z,2.50
2018-12-26T04:38:59.688Z,2.87
2018-12-26T04:41:27.406Z,2.47
2018-12-26T04:43:55.285Z,3.73
2018-12-26T04:46:22.969Z,3.10
2018-12-26T04:48:50.688Z,2.87
2018-12-26T04:51:18.403Z,2.40
2018-12-26T04:53:46.160Z,2.77
2018-12-26T04:56:13.918Z,3.73
2018-12-26T04:58:41.660Z,2.20
2018-12-26T05:01:09.349Z,2.30
2018-12-26T05:03:37.060Z,4.83
2018-12-26T05:06:04.805Z,2.90
2018-12-26T05:08:32.509Z,1.87
2018-12-26T05:11:00.309Z,2.30
2018-12-26T05:13:28.158Z,2.40
2018-12-26T05:15:55.843Z,2.00
2018-12-26T05:18:23.537Z,2.30
2018-12-26T05:20:51.250Z,2.27
2018-12-26T05:23:18.949Z,3.10
2018-12-26T05:25:46.743Z,4.00
2018-12-26T05:28:14.455Z,4.40
2018-12-26T05:30:42.161Z,2.83
2018-12-26T05:33:09.911Z,6.47
2018-12-26T05:35:37.634Z,28.80
2018-12-26T05:38:05.314Z,24.33
2018-12-26T05:40:33.001Z,10.47
2018-12-26T05:43:00.837Z,5.70
2018-12-26T05:45:28.537Z,4.13
2018-12-26T05:47:56.236Z,7.20
2018-12-26T05:50:23.975Z,4.77
2018-12-26T05:52:51.765Z,3.83
2018-12-26T05:55:19.469Z,4.50
2018-12-26T05:57:47.193Z,5.93
2018-12-26T06:00:14.918Z,5.83
2018-12-26T06:02:42.614Z,6.40
2018-12-26T06:05:10.337Z,6.70
2018-12-26T06:07:38.049Z,6.97
2018-12-26T06:10:05.946Z,12.53
2018-12-26T06:12:33.758Z,5.43
2018-12-26T06:15:01.563Z,13.33
2018-12-26T06:17:29.295Z,10.77
2018-12-26T06:19:57.041Z,49.63
2018-12-26T06:22:24.765Z,12.83
2018-12-26T06:24:52.470Z,8.47
2018-12-26T06:27:20.311Z,7.93
2018-12-26T06:29:47.999Z,5.97
2018-12-26T06:32:15.674Z,8.30
2018-12-26T06:34:43.394Z,3.60
2018-12-26T06:37:11.093Z,9.27
2018-12-26T06:39:38.777Z,11.90
2018-12-26T06:42:06.516Z,13.27
2018-12-26T06:44:34.245Z,11.43
2018-12-26T06:47:01.944Z,7.77
2018-12-26T06:49:29.649Z,12.83
2018-12-26T06:51:57.345Z,6.47
2018-12-26T06:54:25.038Z,12.93
2018-12-26T06:56:53.845Z,18.60
2018-12-26T06:59:21.538Z,16.10
2018-12-26T07:01:49.261Z,16.37
2018-12-26T07:04:16.989Z,13.83
2018-12-26T07:06:44.710Z,12.07
2018-12-26T07:09:12.421Z,11.80
2018-12-26T07:11:40.150Z,14.00
2018-12-26T07:14:07.841Z,10.03
2018-12-26T07:16:35.739Z,12.07
2018-12-26T07:19:03.449Z,10.20
2018-12-26T07:21:31.185Z,12.17
2018-12-26T07:23:58.877Z,13.50
2018-12-26T07:26:26.588Z,9.77
2018-12-26T07:28:54.284Z,14.40
2018-12-26T07:31:21.977Z,12.93
2018-12-26T07:33:49.697Z,14.23
2018-12-26T07:36:17.413Z,12.50
2018-12-26T07:38:45.109Z,13.73
2018-12-26T07:41:12.853Z,10.97
2018-12-26T07:43:40.540Z,14.27
2018-12-26T07:46:08.297Z,10.00
2018-12-26T07:48:36.047Z,10.90
2018-12-26T07:51:03.775Z,11.43
2018-12-26T07:53:31.473Z,10.43
2018-12-26T07:55:59.196Z,10.10
2018-12-26T07:58:26.904Z,11.40
2018-12-26T08:00:54.601Z,10.20
2018-12-26T08:03:22.334Z,10.60
2018-12-26T08:05:50.046Z,10.53
2018-12-26T08:08:17.936Z,8.93
2018-12-26T08:10:45.589Z,28.73
2018-12-26T08:13:13.515Z,13.83
2018-12-26T08:15:41.251Z,9.70
2018-12-26T08:18:09.346Z,11.13
2018-12-26T08:20:37.057Z,10.90
2018-12-26T08:23:04.770Z,13.00
2018-12-26T08:25:32.522Z,16.87
2018-12-26T08:28:00.213Z,15.40
2018-12-26T08:30:27.839Z,10.57
2018-12-26T08:32:55.638Z,14.07
2018-12-26T08:35:23.373Z,15.00
2018-12-26T08:37:51.079Z,15.90
2018-12-26T08:40:18.817Z,16.87
2018-12-26T08:42:46.512Z,15.90
2018-12-26T08:45:14.232Z,10.10
2018-12-26T08:47:42.597Z,10.87
2018-12-26T08:50:10.343Z,13.67
2018-12-26T08:52:38.013Z,10.10
2018-12-26T08:55:06.232Z,9.87
2018-12-26T08:57:33.930Z,13.73
2018-12-26T09:00:01.668Z,9.07
2018-12-26T09:02:29.393Z,9.37
2018-12-26T09:04:57.133Z,8.60
2018-12-26T09:07:24.829Z,8.43
2018-12-26T09:09:52.865Z,8.57
2018-12-26T09:12:20.556Z,7.80
2018-12-26T09:14:48.250Z,5.87
2018-12-26T09:17:15.974Z,5.83
2018-12-26T09:19:43.709Z,5.73
2018-12-26T09:22:11.465Z,7.47
2018-12-26T09:24:39.294Z,5.37
2018-12-26T09:27:10.211Z,5.77
2018-12-26T09:29:37.913Z,3.73
2018-12-26T09:32:05.639Z,5.83
2018-12-26T09:34:33.329Z,4.47
2018-12-26T09:37:01.025Z,5.03
2018-12-26T09:39:28.757Z,3.17
2018-12-26T09:41:56.449Z,3.77
2018-12-26T09:44:24.153Z,2.83
2018-12-26T09:46:51.881Z,4.77
2018-12-26T09:49:19.581Z,2.50
2018-12-26T09:51:47.281Z,6.37
2018-12-26T09:54:15.241Z,2.87
2018-12-26T09:56:42.883Z,4.90
2018-12-26T09:59:10.596Z,2.53
2018-12-26T10:01:38.298Z,2.57
2018-12-26T10:04:05.998Z,5.60
2018-12-26T10:06:33.723Z,3.03
2018-12-26T10:09:01.449Z,2.80
2018-12-26T10:11:29.148Z,3.37
2018-12-26T10:13:56.858Z,7.47
2018-12-26T10:16:24.576Z,2.77
2018-12-26T10:18:52.304Z,4.07
2018-12-26T10:21:19.988Z,2.97
2018-12-26T10:23:47.881Z,2.90
2018-12-26T10:26:15.576Z,3.23
2018-12-26T10:28:43.173Z,3.20
2018-12-26T10:31:10.801Z,2.80
2018-12-26T10:33:38.529Z,3.60
2018-12-26T10:36:06.219Z,4.47
2018-12-26T10:38:33.979Z,3.47
2018-12-26T10:41:01.669Z,3.03
2018-12-26T10:43:29.481Z,2.57
2018-12-26T10:45:57.221Z,1.73
2018-12-26T10:48:24.927Z,3.37
2018-12-26T10:50:52.642Z,3.80
2018-12-26T10:53:20.374Z,5.50
2018-12-26T10:55:48.137Z,2.33
2018-12-26T10:58:15.805Z,3.90
2018-12-26T11:00:43.533Z,4.40
2018-12-26T11:03:11.265Z,4.90
2018-12-26T11:05:38.964Z,7.83
2018-12-26T11:08:06.750Z,3.77
2018-12-26T11:10:34.444Z,4.40
2018-12-26T11:13:02.176Z,5.87
2018-12-26T11:15:29.885Z,3.40
2018-12-26T11:17:57.609Z,5.63
2018-12-26T11:20:25.398Z,3.97
2018-12-26T11:22:53.256Z,4.33
2018-12-26T11:25:20.967Z,3.37
2018-12-26T11:27:48.789Z,2.33
2018-12-26T11:30:16.545Z,4.40
2018-12-26T11:32:46.246Z,5.03
2018-12-26T11:35:13.974Z,4.07
2018-12-26T11:37:41.697Z,5.07
2018-12-26T11:40:09.814Z,3.03
2018-12-26T11:42:37.526Z,3.27
2018-12-26T11:45:06.052Z,3.70
2018-12-26T11:47:33.866Z,3.93
2018-12-26T11:50:01.575Z,2.40
2018-12-26T11:52:29.294Z,4.30
2018-12-26T11:54:57.007Z,3.77
2018-12-26T11:57:24.700Z,4.47
2018-12-26T11:59:52.424Z,2.60
2018-12-26T12:02:20.757Z,3.40
2018-12-26T12:04:48.629Z,3.47
2018-12-26T12:07:16.377Z,2.77
2018-12-26T12:09:44.106Z,3.33
2018-12-26T12:12:11.799Z,4.23
2018-12-26T12:14:39.522Z,4.60
2018-12-26T12:17:07.243Z,3.43
2018-12-26T12:19:35.062Z,3.80
2018-12-26T12:22:02.788Z,3.47
2018-12-26T12:24:30.479Z,3.50
2018-12-26T12:26:58.181Z,3.63
2018-12-26T12:29:25.936Z,5.07
2018-12-26T12:31:53.646Z,3.77
2018-12-26T12:34:21.349Z,10.23
2018-12-26T12:36:49.130Z,7.87
2018-12-26T12:39:16.834Z,6.20
2018-12-26T12:41:44.533Z,2.20
2018-12-26T12:44:12.273Z,3.67
2018-12-26T12:46:39.982Z,3.40
2018-12-26T12:49:07.850Z,3.60
2018-12-26T12:51:35.609Z,11.60
2018-12-26T12:54:03.318Z,3.63
2018-12-26T12:56:31.024Z,5.13
2018-12-26T12:58:58.736Z,5.07
2018-12-26T13:01:26.448Z,2.57
2018-12-26T13:03:54.144Z,2.70
2018-12-26T13:06:21.860Z,2.70
2018-12-26T13:08:49.570Z,7.07
2018-12-26T13:11:17.267Z,3.93
2018-12-26T13:13:45.021Z,8.03
2018-12-26T13:16:12.701Z,2.53
2018-12-26T13:18:40.419Z,3.53
2018-12-26T13:21:08.207Z,2.70
2018-12-26T13:23:35.936Z,3.43
2018-12-26T13:26:03.655Z,6.27
2018-12-26T13:28:31.409Z,2.47
2018-12-26T13:31:05.180Z,4.63
2018-12-26T13:33:32.350Z,3.00
2018-12-26T13:36:00.044Z,9.00
2018-12-26T13:38:27.738Z,6.07
2018-12-26T13:40:55.439Z,3.50
2018-12-26T13:43:23.159Z,5.33
2018-12-26T13:45:50.912Z,3.03
2018-12-26T13:48:18.542Z,59.63
2018-12-26T13:50:46.266Z,4.10
2018-12-26T13:53:14.008Z,3.40
2018-12-26T13:55:41.701Z,8.30
2018-12-26T13:58:09.431Z,3.63
2018-12-26T14:00:37.188Z,14.60
2018-12-26T14:03:05.021Z,15.17
2018-12-26T14:05:34.532Z,7.63
2018-12-26T14:08:02.250Z,27.10
2018-12-26T14:10:29.964Z,31.97
2018-12-26T14:12:57.687Z,30.70
2018-12-26T14:15:25.394Z,9.17
2018-12-26T14:17:53.108Z,3.00
2018-12-26T14:20:20.856Z,19.23
2018-12-26T14:22:48.464Z,6.20
2018-12-26T14:25:16.177Z,3.23
2018-12-26T14:27:44.854Z,4.53
2018-12-26T14:30:12.560Z,9.80
2018-12-26T14:32:40.214Z,15.90
2018-12-26T14:35:07.921Z,3.43
2018-12-26T14:37:35.621Z,25.73
2018-12-26T14:40:03.614Z,6.07
2018-12-26T14:42:31.349Z,2.87
2018-12-26T14:44:59.060Z,5.27
2018-12-26T14:47:26.759Z,4.10
2018-12-26T14:49:54.521Z,58.97
2018-12-26T14:52:22.208Z,19.60
2018-12-26T14:54:49.929Z,8.57
2018-12-26T14:57:17.667Z,3.27
2018-12-26T14:59:45.375Z,5.27
2018-12-26T15:02:13.073Z,4.00
2018-12-26T15:04:40.812Z,3.87
2018-12-26T15:07:08.551Z,5.40
2018-12-26T15:09:36.889Z,25.67
2018-12-26T15:12:04.609Z,7.87
2018-12-26T15:14:32.345Z,7.40
2018-12-26T15:17:00.065Z,3.77
2018-12-26T15:19:27.955Z,26.07
2018-12-26T15:21:55.953Z,46.17
2018-12-26T15:24:23.654Z,8.73
2018-12-26T15:26:51.399Z,15.37
2018-12-26T15:29:19.106Z,5.57
2018-12-26T15:31:46.805Z,6.53
2018-12-26T15:34:14.521Z,8.07
2018-12-26T15:36:42.381Z,8.27
2018-12-26T15:39:10.702Z,6.47
2018-12-26T15:41:38.410Z,7.27
2018-12-26T15:44:06.171Z,4.37
2018-12-26T15:46:34.710Z,5.53
2018-12-26T15:49:02.449Z,53.70
2018-12-26T15:51:30.152Z,13.17
2018-12-26T15:53:57.888Z,7.93
2018-12-26T15:56:25.606Z,17.27
2018-12-26T15:58:53.305Z,7.30
2018-12-26T16:01:21.005Z,10.77
2018-12-26T16:03:48.848Z,8.57
2018-12-26T16:06:16.490Z,8.57
2018-12-26T16:08:44.190Z,10.10
2018-12-26T16:11:11.912Z,8.23
2018-12-26T16:13:39.610Z,12.37
2018-12-26T16:16:07.342Z,11.67
2018-12-26T16:18:35.067Z,8.10
2018-12-26T16:21:02.825Z,10.47
2018-12-26T16:23:30.526Z,11.43
2018-12-26T16:25:58.248Z,9.93
2018-12-26T16:28:25.860Z,9.67
2018-12-26T16:30:53.582Z,15.07
2018-12-26T16:33:21.310Z,10.07
2018-12-26T16:35:49.029Z,13.13
2018-12-26T16:38:16.734Z,14.40
2018-12-26T16:40:44.458Z,20.00
2018-12-26T16:43:12.162Z,14.03
2018-12-26T16:45:39.861Z,14.30
2018-12-26T16:48:07.594Z,17.67
2018-12-26T16:50:35.381Z,15.73
2018-12-26T16:53:03.078Z,14.10
2018-12-26T16:55:30.803Z,16.00
2018-12-26T16:57:58.502Z,18.13
2018-12-26T17:00:26.204Z,16.37
2018-12-26T17:02:54.061Z,13.30
2018-12-26T17:05:21.790Z,21.40
2018-12-26T17:07:49.483Z,38.67
2018-12-26T17:10:18.706Z,21.97
2018-12-26T17:12:46.432Z,26.50
2018-12-26T17:15:14.157Z,59.10
2018-12-26T17:17:41.919Z,64.60
2018-12-26T17:20:09.661Z,45.23
2018-12-26T17:22:37.432Z,28.90
2018-12-26T17:25:05.213Z,26.73
2018-12-26T17:27:32.941Z,30.43
2018-12-26T17:30:00.643Z,27.80
2018-12-26T17:32:28.393Z,30.93
2018-12-26T17:34:56.117Z,27.03
2018-12-26T17:37:23.814Z,29.90
2018-12-26T17:39:51.559Z,31.83
2018-12-26T17:42:19.249Z,32.00
2018-12-26T17:44:46.935Z,43.47
2018-12-26T17:47:14.651Z,40.03
2018-12-26T17:49:42.370Z,39.63
2018-12-26T17:52:10.070Z,40.60
2018-12-26T17:55:15.855Z,39.23
2018-12-26T17:57:46.559Z,54.47
2018-12-26T18:00:21.531Z,42.93
2018-12-26T18:02:49.229Z,35.43
2018-12-26T18:05:17.814Z,39.20
2018-12-26T18:07:46.525Z,42.63
2018-12-26T18:10:14.253Z,51.95
2018-12-26T18:12:41.956Z,50.07
2018-12-26T18:15:10.637Z,54.30
2018-12-26T18:17:38.459Z,40.03
2018-12-26T18:20:08.319Z,43.73
2018-12-26T18:22:36.049Z,47.40
2018-12-26T18:25:04.624Z,63.67
2018-12-26T18:27:32.319Z,64.47
2018-12-26T18:30:00.036Z,55.83
2018-12-26T18:32:27.721Z,60.33
2018-12-26T18:34:55.455Z,51.97
2018-12-26T18:37:23.196Z,65.00
2018-12-26T18:39:50.883Z,60.83
2018-12-26T18:42:18.709Z,59.70
2018-12-26T18:44:46.430Z,65.00
2018-12-26T18:47:14.125Z,55.70
2018-12-26T18:49:41.829Z,58.10
2018-12-26T18:52:09.546Z,56.80
2018-12-26T18:54:37.242Z,81.73
2018-12-26T18:57:04.941Z,57.17
2018-12-26T18:59:32.660Z,56.43
2018-12-26T19:02:00.359Z,58.67
2018-12-26T19:04:28.052Z,61.30
2018-12-26T19:06:55.763Z,64.53
2018-12-26T19:09:23.457Z,57.63
2018-12-26T19:11:51.157Z,49.67
2018-12-26T19:14:18.906Z,68.53
2018-12-26T19:16:46.611Z,54.40
2018-12-26T19:19:14.315Z,47.73
2018-12-26T19:21:42.069Z,47.80
2018-12-26T19:24:09.769Z,49.37
2018-12-26T19:26:37.462Z,42.70
2018-12-26T19:29:05.174Z,60.90
2018-12-26T19:31:39.436Z,57.33
2018-12-26T19:34:02.368Z,50.07
2018-12-26T19:36:30.133Z,33.47
2018-12-26T19:38:57.861Z,40.43
2018-12-26T19:41:25.561Z,41.50
2018-12-26T19:43:53.281Z,51.57
2018-12-26T19:46:20.981Z,47.47
2018-12-26T19:48:48.682Z,65.23
2018-12-26T19:51:16.397Z,59.53
2018-12-26T19:53:44.113Z,64.17
2018-12-26T19:56:11.809Z,60.10
2018-12-26T19:58:39.530Z,53.80
2018-12-26T20:01:07.260Z,51.33
2018-12-26T20:03:34.913Z,58.23
2018-12-26T20:06:02.690Z,42.33
2018-12-26T20:08:30.406Z,33.90
2018-12-26T20:10:58.111Z,44.80
2018-12-26T20:13:25.840Z,45.67
2018-12-26T20:15:53.559Z,35.70
2018-12-26T20:18:21.238Z,43.43
2018-12-26T20:20:48.966Z,39.87
2018-12-26T20:23:16.697Z,35.97
2018-12-26T20:25:44.393Z,38.35
2018-12-26T20:28:12.108Z,40.13
2018-12-26T20:30:39.824Z,52.90
2018-12-26T20:33:07.525Z,36.40
2018-12-26T20:35:35.246Z,46.47
2018-12-26T20:38:02.945Z,96.07
2018-12-26T20:40:30.645Z,52.77
2018-12-26T20:42:58.372Z,43.70
2018-12-26T20:45:26.076Z,43.90
2018-12-26T20:47:53.774Z,37.80
2018-12-26T20:50:21.493Z,36.50
2018-12-26T20:52:49.245Z,34.97
2018-12-26T20:55:16.954Z,35.77
2018-12-26T20:57:44.670Z,41.10
2018-12-26T21:00:12.355Z,31.37
2018-12-26T21:02:40.047Z,40.53
2018-12-26T21:05:08.870Z,39.43
2018-12-26T21:07:36.577Z,50.53
2018-12-26T21:10:06.654Z,64.63
2018-12-26T21:12:34.149Z,70.17
2018-12-26T21:15:01.933Z,66.57
2018-12-26T21:17:29.647Z,61.00
2018-12-26T21:19:57.384Z,57.77
2018-12-26T21:22:25.077Z,55.93
2018-12-26T21:24:52.805Z,61.43
2018-12-26T21:27:20.508Z,58.20
2018-12-26T21:29:48.193Z,47.40
2018-12-26T21:32:15.885Z,41.10
2018-12-26T21:34:43.594Z,40.30
2018-12-26T21:37:11.297Z,41.43
2018-12-26T21:39:39.001Z,42.57
2018-12-26T21:42:06.728Z,38.53
2018-12-26T21:44:34.425Z,48.07
2018-12-26T21:47:02.137Z,58.37
2018-12-26T21:49:29.868Z,43.70
2018-12-26T21:51:58.000Z,47.73
2018-12-26T21:54:25.717Z,41.27
2018-12-26T21:56:53.422Z,50.93
2018-12-26T21:59:21.133Z,54.53
2018-12-26T22:01:48.826Z,54.47
2018-12-26T22:04:16.561Z,61.20
2018-12-26T22:06:44.201Z,62.30
2018-12-26T22:09:11.909Z,57.53
2018-12-26T22:11:39.686Z,63.30
2018-12-26T22:14:07.408Z,58.63
2018-12-26T22:16:35.143Z,51.83
2018-12-26T22:19:02.846Z,56.10
2018-12-26T22:21:30.549Z,58.30
2018-12-26T22:23:58.281Z,60.93
2018-12-26T22:26:26.046Z,54.67
2018-12-26T22:28:53.740Z,54.23
2018-12-26T22:31:21.434Z,48.93
2018-12-26T22:33:49.153Z,55.37
2018-12-26T22:36:16.845Z,56.77
2018-12-26T22:38:44.553Z,59.97
2018-12-26T22:41:12.282Z,59.93
2018-12-26T22:43:39.978Z,62.40
2018-12-26T22:46:07.687Z,58.10
2018-12-26T22:48:35.402Z,47.57
2018-12-26T22:51:03.133Z,48.17
2018-12-26T22:53:30.824Z,52.67
2018-12-26T22:55:58.546Z,51.37
2018-12-26T22:58:26.229Z,45.73
2018-12-26T23:00:54.632Z,49.70
2018-12-26T23:03:22.354Z,52.17
2018-12-26T23:05:50.045Z,44.70
2018-12-26T23:08:17.738Z,45.47
2018-12-26T23:10:45.477Z,42.77
2018-12-26T23:13:13.185Z,47.50
2018-12-26T23:15:40.885Z,50.67
2018-12-26T23:18:08.654Z,42.07
2018-12-26T23:20:36.453Z,40.43
2018-12-26T23:23:04.235Z,33.33
2018-12-26T23:25:31.933Z,27.63
2018-12-26T23:27:59.629Z,25.40
2018-12-26T23:30:27.325Z,29.83
2018-12-26T23:32:55.057Z,25.40
2018-12-26T23:35:22.776Z,27.00
2018-12-26T23:37:50.474Z,29.50
2018-12-26T23:40:18.204Z,28.70
2018-12-26T23:42:45.892Z,28.47
2018-12-26T23:45:13.585Z,31.40
2018-12-26T23:47:41.325Z,40.17
2018-12-26T23:50:09.029Z,36.43
2018-12-26T23:52:36.742Z,35.23
2018-12-26T23:55:04.840Z,35.93
2018-12-26T23:57:32.541Z,34.97
